sensor_id;sensor_type;location;lat;lon;timestamp;pressure;altitude;pressure_sealevel;temperature;humidity
8101;BME280;4093;53.470;9.832;2022-10-16T00:00:12;100808.41;;;16.86;91.06
8101;BME280;4093;53.470;9.832;2022-10-16T00:02:39;100796.03;;;16.27;93.13
8101;BME280;4093;53.470;9.832;2022-10-16T00:05:07;100804.97;;;16.64;91.74
8101;BME280;4093;53.470;9.832;2022-10-16T00:07:35;100786.22;;;16.54;91.28
8101;BME280;4093;53.470;9.832;2022-10-16T00:10:03;100806.31;;;16.52;91.78
8101;BME280;4093;53.470;9.832;2022-10-16T00:12:31;100812.53;;;16.70;91.32
8101;BME280;4093;53.470;9.832;2022-10-16T00:15:00;100805.16;;;16.59;91.58
8101;BME280;4093;53.470;9.832;2022-10-16T00:17:29;100760.09;;;16.54;89.61
8101;BME280;4093;53.470;9.832;2022-10-16T00:19:57;100803.94;;;16.68;89.38
8101;BME280;4093;53.470;9.832;2022-10-16T00:22:25;100798.13;;;16.61;89.85
8101;BME280;4093;53.470;9.832;2022-10-16T00:24:54;100801.69;;;16.81;88.88
8101;BME280;4093;53.470;9.832;2022-10-16T00:27:21;100807.41;;;17.09;87.62
8101;BME280;4093;53.470;9.832;2022-10-16T00:29:49;100806.94;;;16.79;88.86
8101;BME280;4093;53.470;9.832;2022-10-16T00:32:19;100801.63;;;16.60;89.24
8101;BME280;4093;53.470;9.832;2022-10-16T00:34:47;100805.41;;;16.53;89.02
8101;BME280;4093;53.470;9.832;2022-10-16T00:37:15;100795.38;;;16.00;90.20
8101;BME280;4093;53.470;9.832;2022-10-16T00:39:42;100813.66;;;16.64;89.02
8101;BME280;4093;53.470;9.832;2022-10-16T00:42:14;100808.09;;;16.52;88.50
8101;BME280;4093;53.470;9.832;2022-10-16T00:44:48;100822.50;;;16.18;89.87
8101;BME280;4093;53.470;9.832;2022-10-16T00:47:23;100818.19;;;16.17;89.25
8101;BME280;4093;53.470;9.832;2022-10-16T00:49:56;100825.31;;;16.56;87.38
8101;BME280;4093;53.470;9.832;2022-10-16T00:52:25;100808.47;;;16.42;87.44
8101;BME280;4093;53.470;9.832;2022-10-16T00:54:54;100815.81;;;16.55;86.74
8101;BME280;4093;53.470;9.832;2022-10-16T00:57:23;100820.09;;;16.78;86.02
8101;BME280;4093;53.470;9.832;2022-10-16T00:59:53;100816.09;;;17.10;83.75
8101;BME280;4093;53.470;9.832;2022-10-16T01:02:22;100807.00;;;16.13;87.20
8101;BME280;4093;53.470;9.832;2022-10-16T01:04:52;100819.63;;;15.80;88.70
8101;BME280;4093;53.470;9.832;2022-10-16T01:07:30;100824.00;;;16.46;86.32
8101;BME280;4093;53.470;9.832;2022-10-16T01:10:07;100834.75;;;16.38;86.58
8101;BME280;4093;53.470;9.832;2022-10-16T01:12:40;100828.56;;;16.18;87.50
8101;BME280;4093;53.470;9.832;2022-10-16T01:15:17;100825.50;;;16.51;85.50
8101;BME280;4093;53.470;9.832;2022-10-16T01:17:54;100833.41;;;16.06;87.66
8101;BME280;4093;53.470;9.832;2022-10-16T01:20:28;100834.31;;;16.05;88.06
8101;BME280;4093;53.470;9.832;2022-10-16T01:23:06;100776.28;;;15.76;86.81
8101;BME280;4093;53.470;9.832;2022-10-16T01:25:46;100836.84;;;15.84;88.35
8101;BME280;4093;53.470;9.832;2022-10-16T01:28:19;100836.81;;;16.08;87.10
8101;BME280;4093;53.470;9.832;2022-10-16T01:30:51;100841.09;;;15.87;88.76
8101;BME280;4093;53.470;9.832;2022-10-16T01:33:22;100837.59;;;16.10;87.23
8101;BME280;4093;53.470;9.832;2022-10-16T01:35:53;100838.56;;;16.29;86.99
8101;BME280;4093;53.470;9.832;2022-10-16T01:38:26;100832.69;;;15.79;88.13
8101;BME280;4093;53.470;9.832;2022-10-16T01:41:00;100840.25;;;15.86;88.19
8101;BME280;4093;53.470;9.832;2022-10-16T01:43:34;100837.44;;;15.91;87.46
8101;BME280;4093;53.470;9.832;2022-10-16T01:46:05;100839.66;;;16.02;87.26
8101;BME280;4093;53.470;9.832;2022-10-16T01:48:34;100843.03;;;16.04;87.21
8101;BME280;4093;53.470;9.832;2022-10-16T01:51:05;100838.16;;;15.94;87.45
8101;BME280;4093;53.470;9.832;2022-10-16T01:53:34;100833.94;;;15.68;88.23
8101;BME280;4093;53.470;9.832;2022-10-16T01:56:06;100847.94;;;15.89;87.07
8101;BME280;4093;53.470;9.832;2022-10-16T01:58:39;100848.56;;;15.72;88.34
8101;BME280;4093;53.470;9.832;2022-10-16T02:01:10;100845.81;;;15.77;88.07
8101;BME280;4093;53.470;9.832;2022-10-16T02:03:42;100847.16;;;15.87;87.27
8101;BME280;4093;53.470;9.832;2022-10-16T02:06:12;100835.91;;;15.85;86.98
8101;BME280;4093;53.470;9.832;2022-10-16T02:08:40;100836.16;;;15.54;88.61
8101;BME280;4093;53.470;9.832;2022-10-16T02:11:10;100845.59;;;15.58;87.42
8101;BME280;4093;53.470;9.832;2022-10-16T02:13:43;100842.28;;;15.53;88.55
8101;BME280;4093;53.470;9.832;2022-10-16T02:16:13;100847.09;;;15.40;89.81
8101;BME280;4093;53.470;9.832;2022-10-16T02:18:42;100855.41;;;15.75;87.53
8101;BME280;4093;53.470;9.832;2022-10-16T02:21:15;100850.19;;;15.52;88.29
8101;BME280;4093;53.470;9.832;2022-10-16T02:23:49;100848.66;;;15.46;88.77
8101;BME280;4093;53.470;9.832;2022-10-16T02:26:24;100852.03;;;15.48;88.78
8101;BME280;4093;53.470;9.832;2022-10-16T02:29:00;100855.06;;;15.61;88.07
8101;BME280;4093;53.470;9.832;2022-10-16T02:31:34;100857.41;;;15.43;88.40
8101;BME280;4093;53.470;9.832;2022-10-16T02:34:04;100854.25;;;15.59;87.55
8101;BME280;4093;53.470;9.832;2022-10-16T02:36:35;100853.97;;;15.66;87.66
8101;BME280;4093;53.470;9.832;2022-10-16T02:39:04;100846.97;;;15.68;86.55
8101;BME280;4093;53.470;9.832;2022-10-16T02:41:32;100850.38;;;15.94;86.77
8101;BME280;4093;53.470;9.832;2022-10-16T02:44:02;100856.47;;;15.71;86.21
8101;BME280;4093;53.470;9.832;2022-10-16T02:46:30;100857.88;;;15.80;87.27
8101;BME280;4093;53.470;9.832;2022-10-16T02:48:57;100853.41;;;15.83;86.35
8101;BME280;4093;53.470;9.832;2022-10-16T02:51:25;100848.78;;;15.18;89.24
8101;BME280;4093;53.470;9.832;2022-10-16T02:53:53;100860.44;;;15.56;87.82
8101;BME280;4093;53.470;9.832;2022-10-16T02:56:21;100857.28;;;14.98;89.92
8101;BME280;4093;53.470;9.832;2022-10-16T02:58:48;100853.81;;;15.22;89.13
8101;BME280;4093;53.470;9.832;2022-10-16T03:01:18;100845.84;;;15.02;89.56
8101;BME280;4093;53.470;9.832;2022-10-16T03:03:46;100855.53;;;15.23;89.49
8101;BME280;4093;53.470;9.832;2022-10-16T03:06:13;100857.81;;;15.56;87.70
8101;BME280;4093;53.470;9.832;2022-10-16T03:08:41;100860.84;;;15.45;88.48
8101;BME280;4093;53.470;9.832;2022-10-16T03:11:09;100848.66;;;14.96;90.24
8101;BME280;4093;53.470;9.832;2022-10-16T03:13:37;100849.59;;;14.93;90.42
8101;BME280;4093;53.470;9.832;2022-10-16T03:16:04;100850.94;;;14.80;91.73
8101;BME280;4093;53.470;9.832;2022-10-16T03:18:34;100847.38;;;14.83;91.44
8101;BME280;4093;53.470;9.832;2022-10-16T03:21:01;100860.94;;;14.92;90.84
8101;BME280;4093;53.470;9.832;2022-10-16T03:23:30;100864.63;;;15.12;90.39
8101;BME280;4093;53.470;9.832;2022-10-16T03:25:57;100855.00;;;14.89;91.21
8101;BME280;4093;53.470;9.832;2022-10-16T03:28:25;100863.94;;;14.80;92.41
8101;BME280;4093;53.470;9.832;2022-10-16T03:30:53;100858.53;;;14.86;90.77
8101;BME280;4093;53.470;9.832;2022-10-16T03:33:21;100867.84;;;14.93;90.56
8101;BME280;4093;53.470;9.832;2022-10-16T03:35:53;100863.38;;;15.22;89.30
8101;BME280;4093;53.470;9.832;2022-10-16T03:38:21;100864.13;;;15.25;88.95
8101;BME280;4093;53.470;9.832;2022-10-16T03:40:49;100868.38;;;15.03;90.67
8101;BME280;4093;53.470;9.832;2022-10-16T03:43:17;100867.22;;;14.85;91.02
8101;BME280;4093;53.470;9.832;2022-10-16T03:45:45;100872.19;;;14.93;91.20
8101;BME280;4093;53.470;9.832;2022-10-16T03:48:13;100882.66;;;14.65;91.98
8101;BME280;4093;53.470;9.832;2022-10-16T03:50:40;100852.53;;;14.57;91.83
8101;BME280;4093;53.470;9.832;2022-10-16T03:53:10;100875.38;;;15.01;90.38
8101;BME280;4093;53.470;9.832;2022-10-16T03:55:37;100813.94;;;14.70;89.35
8101;BME280;4093;53.470;9.832;2022-10-16T03:58:05;100873.81;;;15.22;88.87
8101;BME280;4093;53.470;9.832;2022-10-16T04:00:33;100890.47;;;14.91;90.89
8101;BME280;4093;53.470;9.832;2022-10-16T04:03:01;100878.75;;;14.50;92.21
8101;BME280;4093;53.470;9.832;2022-10-16T04:05:29;100889.94;;;15.07;89.44
8101;BME280;4093;53.470;9.832;2022-10-16T04:07:57;100886.56;;;14.51;90.54
8101;BME280;4093;53.470;9.832;2022-10-16T04:10:26;100893.38;;;14.55;92.00
8101;BME280;4093;53.470;9.832;2022-10-16T04:12:54;100889.84;;;14.56;92.25
8101;BME280;4093;53.470;9.832;2022-10-16T04:15:22;100892.78;;;14.74;91.65
8101;BME280;4093;53.470;9.832;2022-10-16T04:17:51;100895.78;;;14.62;91.81
8101;BME280;4093;53.470;9.832;2022-10-16T04:20:19;100903.00;;;14.80;90.61
8101;BME280;4093;53.470;9.832;2022-10-16T04:22:47;100910.25;;;14.70;91.78
8101;BME280;4093;53.470;9.832;2022-10-16T04:25:15;100908.16;;;14.53;92.19
8101;BME280;4093;53.470;9.832;2022-10-16T04:27:44;100909.84;;;15.09;90.09
8101;BME280;4093;53.470;9.832;2022-10-16T04:30:12;100902.25;;;14.48;92.36
8101;BME280;4093;53.470;9.832;2022-10-16T04:32:40;100902.44;;;14.42;93.13
8101;BME280;4093;53.470;9.832;2022-10-16T04:35:08;100905.03;;;14.42;92.67
8101;BME280;4093;53.470;9.832;2022-10-16T04:37:36;100921.69;;;14.35;93.64
8101;BME280;4093;53.470;9.832;2022-10-16T04:40:04;100928.50;;;14.69;92.67
8101;BME280;4093;53.470;9.832;2022-10-16T04:42:32;100933.19;;;14.86;92.60
8101;BME280;4093;53.470;9.832;2022-10-16T04:45:02;100935.38;;;14.71;93.00
8101;BME280;4093;53.470;9.832;2022-10-16T04:47:30;100936.59;;;14.60;93.23
8101;BME280;4093;53.470;9.832;2022-10-16T04:49:57;100937.03;;;14.44;94.10
8101;BME280;4093;53.470;9.832;2022-10-16T04:52:28;100936.78;;;14.81;93.24
8101;BME280;4093;53.470;9.832;2022-10-16T04:54:58;100916.63;;;14.60;93.03
8101;BME280;4093;53.470;9.832;2022-10-16T04:57:29;100908.50;;;14.41;94.56
8101;BME280;4093;53.470;9.832;2022-10-16T04:59:57;100935.16;;;14.49;94.70
8101;BME280;4093;53.470;9.832;2022-10-16T05:02:26;100943.53;;;14.61;94.03
8101;BME280;4093;53.470;9.832;2022-10-16T05:04:54;100929.66;;;14.30;94.96
8101;BME280;4093;53.470;9.832;2022-10-16T05:07:22;100945.97;;;14.65;94.00
8101;BME280;4093;53.470;9.832;2022-10-16T05:09:50;100895.06;;;14.56;92.30
8101;BME280;4093;53.470;9.832;2022-10-16T05:12:18;100941.31;;;14.76;92.72
8101;BME280;4093;53.470;9.832;2022-10-16T05:14:45;100950.34;;;14.65;93.45
8101;BME280;4093;53.470;9.832;2022-10-16T05:17:13;100965.16;;;15.17;91.99
8101;BME280;4093;53.470;9.832;2022-10-16T05:19:42;100958.44;;;14.82;93.52
8101;BME280;4093;53.470;9.832;2022-10-16T05:22:10;100956.56;;;14.87;92.99
8101;BME280;4093;53.470;9.832;2022-10-16T05:24:38;100965.75;;;14.71;93.74
8101;BME280;4093;53.470;9.832;2022-10-16T05:27:06;100956.75;;;14.81;92.47
8101;BME280;4093;53.470;9.832;2022-10-16T05:29:34;100961.19;;;14.49;94.46
8101;BME280;4093;53.470;9.832;2022-10-16T05:32:01;100973.28;;;14.80;92.64
8101;BME280;4093;53.470;9.832;2022-10-16T05:34:29;100960.94;;;14.58;93.89
8101;BME280;4093;53.470;9.832;2022-10-16T05:36:58;100965.84;;;14.68;93.35
8101;BME280;4093;53.470;9.832;2022-10-16T05:39:26;100962.88;;;14.80;92.72
8101;BME280;4093;53.470;9.832;2022-10-16T05:41:54;100966.66;;;14.98;92.29
8101;BME280;4093;53.470;9.832;2022-10-16T05:44:22;100957.78;;;14.75;92.38
8101;BME280;4093;53.470;9.832;2022-10-16T05:46:49;100956.53;;;14.61;93.84
8101;BME280;4093;53.470;9.832;2022-10-16T05:49:17;100968.75;;;14.58;94.46
8101;BME280;4093;53.470;9.832;2022-10-16T05:51:45;100968.66;;;14.62;93.98
8101;BME280;4093;53.470;9.832;2022-10-16T05:54:14;100975.50;;;14.92;93.01
8101;BME280;4093;53.470;9.832;2022-10-16T05:56:42;100981.50;;;14.94;92.73
8101;BME280;4093;53.470;9.832;2022-10-16T05:59:10;100980.19;;;14.81;93.54
8101;BME280;4093;53.470;9.832;2022-10-16T06:01:38;100972.06;;;14.64;94.75
8101;BME280;4093;53.470;9.832;2022-10-16T06:04:06;100972.28;;;14.84;93.36
8101;BME280;4093;53.470;9.832;2022-10-16T06:06:33;100981.88;;;14.82;93.40
8101;BME280;4093;53.470;9.832;2022-10-16T06:09:03;100936.38;;;14.67;93.54
8101;BME280;4093;53.470;9.832;2022-10-16T06:11:33;100982.22;;;14.99;93.41
8101;BME280;4093;53.470;9.832;2022-10-16T06:14:01;100941.31;;;14.75;92.75
8101;BME280;4093;53.470;9.832;2022-10-16T06:16:34;100975.25;;;14.72;94.64
8101;BME280;4093;53.470;9.832;2022-10-16T06:19:02;100987.22;;;15.06;93.92
8101;BME280;4093;53.470;9.832;2022-10-16T06:21:32;100981.75;;;14.58;95.19
8101;BME280;4093;53.470;9.832;2022-10-16T06:24:00;100989.88;;;14.76;94.88
8101;BME280;4093;53.470;9.832;2022-10-16T06:26:30;100997.13;;;14.94;94.38
8101;BME280;4093;53.470;9.832;2022-10-16T06:28:59;100992.16;;;14.87;94.79
8101;BME280;4093;53.470;9.832;2022-10-16T06:31:28;100997.66;;;14.77;95.98
8101;BME280;4093;53.470;9.832;2022-10-16T06:33:58;100986.97;;;14.87;95.73
8101;BME280;4093;53.470;9.832;2022-10-16T06:36:26;100988.56;;;14.91;95.93
8101;BME280;4093;53.470;9.832;2022-10-16T06:38:54;100992.91;;;14.90;96.55
8101;BME280;4093;53.470;9.832;2022-10-16T06:41:22;101008.50;;;15.20;94.74
8101;BME280;4093;53.470;9.832;2022-10-16T06:43:51;101016.78;;;15.58;92.88
8101;BME280;4093;53.470;9.832;2022-10-16T06:46:22;101022.78;;;15.86;91.52
8101;BME280;4093;53.470;9.832;2022-10-16T06:48:50;101009.22;;;15.50;92.83
8101;BME280;4093;53.470;9.832;2022-10-16T06:51:19;101009.50;;;15.41;93.45
8101;BME280;4093;53.470;9.832;2022-10-16T06:53:48;101024.94;;;15.47;94.08
8101;BME280;4093;53.470;9.832;2022-10-16T06:56:32;101026.28;;;15.32;94.88
8101;BME280;4093;53.470;9.832;2022-10-16T06:59:01;101047.63;;;15.71;94.32
8101;BME280;4093;53.470;9.832;2022-10-16T07:01:31;101041.19;;;16.07;92.02
8101;BME280;4093;53.470;9.832;2022-10-16T07:04:00;101043.03;;;16.28;91.25
8101;BME280;4093;53.470;9.832;2022-10-16T07:06:31;101001.81;;;15.63;93.86
8101;BME280;4093;53.470;9.832;2022-10-16T07:09:02;101049.34;;;16.46;91.32
8101;BME280;4093;53.470;9.832;2022-10-16T07:11:30;101014.22;;;16.31;91.11
8101;BME280;4093;53.470;9.832;2022-10-16T07:13:58;101056.66;;;16.60;91.23
8101;BME280;4093;53.470;9.832;2022-10-16T07:16:27;101045.84;;;16.69;90.73
8101;BME280;4093;53.470;9.832;2022-10-16T07:18:58;101038.50;;;16.33;90.38
8101;BME280;4093;53.470;9.832;2022-10-16T07:21:28;101019.84;;;15.95;91.79
8101;BME280;4093;53.470;9.832;2022-10-16T07:23:58;101055.03;;;16.09;92.30
8101;BME280;4093;53.470;9.832;2022-10-16T07:26:29;101060.41;;;16.53;90.90
8101;BME280;4093;53.470;9.832;2022-10-16T07:28:57;101062.97;;;16.78;89.45
8101;BME280;4093;53.470;9.832;2022-10-16T07:31:26;100992.69;;;16.01;90.70
8101;BME280;4093;53.470;9.832;2022-10-16T07:33:54;101074.75;;;17.54;86.68
8101;BME280;4093;53.470;9.832;2022-10-16T07:36:23;101068.59;;;17.97;85.55
8101;BME280;4093;53.470;9.832;2022-10-16T07:38:51;101065.94;;;20.02;75.33
8101;BME280;4093;53.470;9.832;2022-10-16T07:41:25;101078.34;;;21.14;70.96
8101;BME280;4093;53.470;9.832;2022-10-16T07:43:54;101069.50;;;20.68;71.91
8101;BME280;4093;53.470;9.832;2022-10-16T07:46:24;101062.88;;;19.94;74.81
8101;BME280;4093;53.470;9.832;2022-10-16T07:48:52;101080.19;;;21.28;71.20
8101;BME280;4093;53.470;9.832;2022-10-16T07:51:21;101062.53;;;19.31;77.70
8101;BME280;4093;53.470;9.832;2022-10-16T07:53:51;101071.91;;;21.04;72.59
8101;BME280;4093;53.470;9.832;2022-10-16T07:56:19;101077.44;;;22.77;65.19
8101;BME280;4093;53.470;9.832;2022-10-16T07:58:48;101078.13;;;23.22;63.63
8101;BME280;4093;53.470;9.832;2022-10-16T08:01:17;101056.00;;;22.55;64.67
8101;BME280;4093;53.470;9.832;2022-10-16T08:03:47;101075.84;;;24.21;60.19
8101;BME280;4093;53.470;9.832;2022-10-16T08:06:15;101021.06;;;24.36;59.14
8101;BME280;4093;53.470;9.832;2022-10-16T08:08:49;101072.56;;;23.40;60.98
8101;BME280;4093;53.470;9.832;2022-10-16T08:11:18;101086.81;;;23.10;63.92
8101;BME280;4093;53.470;9.832;2022-10-16T08:13:46;101070.47;;;22.05;66.14
8101;BME280;4093;53.470;9.832;2022-10-16T08:16:13;101089.59;;;20.53;71.06
8101;BME280;4093;53.470;9.832;2022-10-16T08:18:41;101069.91;;;20.27;72.18
8101;BME280;4093;53.470;9.832;2022-10-16T08:21:12;101113.78;;;20.60;71.96
8101;BME280;4093;53.470;9.832;2022-10-16T08:23:47;101102.41;;;20.59;71.58
8101;BME280;4093;53.470;9.832;2022-10-16T08:26:25;101112.47;;;19.47;78.41
8101;BME280;4093;53.470;9.832;2022-10-16T08:28:53;101117.63;;;19.48;77.01
8101;BME280;4093;53.470;9.832;2022-10-16T08:31:22;101108.81;;;19.32;77.49
8101;BME280;4093;53.470;9.832;2022-10-16T08:33:50;101113.41;;;19.63;76.78
8101;BME280;4093;53.470;9.832;2022-10-16T08:36:19;101116.13;;;21.75;70.01
8101;BME280;4093;53.470;9.832;2022-10-16T08:38:48;101107.66;;;22.72;65.84
8101;BME280;4093;53.470;9.832;2022-10-16T08:44:47;101101.38;;;20.62;72.52
8101;BME280;4093;53.470;9.832;2022-10-16T08:47:23;101119.78;;;19.40;77.75
8101;BME280;4093;53.470;9.832;2022-10-16T08:49:57;101122.81;;;20.37;75.55
8101;BME280;4093;53.470;9.832;2022-10-16T08:52:29;101109.66;;;19.69;77.21
8101;BME280;4093;53.470;9.832;2022-10-16T08:54:59;101063.28;;;19.33;77.32
8101;BME280;4093;53.470;9.832;2022-10-16T08:57:27;101127.13;;;20.04;76.48
8101;BME280;4093;53.470;9.832;2022-10-16T09:00:00;101126.97;;;19.54;77.40
8101;BME280;4093;53.470;9.832;2022-10-16T09:02:37;101131.22;;;19.01;78.79
8101;BME280;4093;53.470;9.832;2022-10-16T09:05:26;101139.38;;;18.95;79.22
8101;BME280;4093;53.470;9.832;2022-10-16T09:08:05;101148.00;;;19.35;78.66
8101;BME280;4093;53.470;9.832;2022-10-16T09:10:45;101150.56;;;19.17;78.77
8101;BME280;4093;53.470;9.832;2022-10-16T09:13:22;101145.09;;;19.77;77.65
8101;BME280;4093;53.470;9.832;2022-10-16T09:15:58;101159.06;;;19.95;77.52
8101;BME280;4093;53.470;9.832;2022-10-16T09:18:33;101161.00;;;19.74;77.13
8101;BME280;4093;53.470;9.832;2022-10-16T09:21:09;101163.19;;;19.28;78.26
8101;BME280;4093;53.470;9.832;2022-10-16T09:23:39;101158.50;;;19.35;77.34
8101;BME280;4093;53.470;9.832;2022-10-16T09:26:11;101156.94;;;18.74;79.29
8101;BME280;4093;53.470;9.832;2022-10-16T09:28:40;101165.88;;;19.08;78.57
8101;BME280;4093;53.470;9.832;2022-10-16T09:31:14;101172.81;;;19.47;77.02
8101;BME280;4093;53.470;9.832;2022-10-16T09:33:44;101174.88;;;19.40;77.84
8101;BME280;4093;53.470;9.832;2022-10-16T09:36:13;101174.50;;;19.29;76.51
8101;BME280;4093;53.470;9.832;2022-10-16T09:38:40;101169.94;;;19.51;76.49
8101;BME280;4093;53.470;9.832;2022-10-16T09:41:16;101155.50;;;19.05;77.65
8101;BME280;4093;53.470;9.832;2022-10-16T09:43:52;101145.63;;;18.72;78.50
8101;BME280;4093;53.470;9.832;2022-10-16T09:46:26;101179.47;;;19.16;77.65
8101;BME280;4093;53.470;9.832;2022-10-16T09:48:56;101185.19;;;19.05;78.27
8101;BME280;4093;53.470;9.832;2022-10-16T09:51:26;101190.38;;;19.26;77.43
8101;BME280;4093;53.470;9.832;2022-10-16T09:53:57;101192.59;;;19.35;78.33
8101;BME280;4093;53.470;9.832;2022-10-16T09:56:26;101197.56;;;19.58;77.04
8101;BME280;4093;53.470;9.832;2022-10-16T09:58:56;101202.81;;;19.58;77.54
8101;BME280;4093;53.470;9.832;2022-10-16T10:01:31;101197.47;;;19.05;78.94
8101;BME280;4093;53.470;9.832;2022-10-16T10:04:03;101209.78;;;19.59;78.75
8101;BME280;4093;53.470;9.832;2022-10-16T10:06:33;101201.13;;;19.57;76.42
8101;BME280;4093;53.470;9.832;2022-10-16T10:09:16;101209.09;;;19.75;76.13
8101;BME280;4093;53.470;9.832;2022-10-16T10:11:48;101202.22;;;19.53;77.45
8101;BME280;4093;53.470;9.832;2022-10-16T10:14:23;101204.69;;;19.75;76.15
8101;BME280;4093;53.470;9.832;2022-10-16T10:17:08;101202.97;;;19.36;76.65
8101;BME280;4093;53.470;9.832;2022-10-16T10:19:41;101205.19;;;19.46;76.10
8101;BME280;4093;53.470;9.832;2022-10-16T10:22:28;101215.00;;;19.97;75.06
8101;BME280;4093;53.470;9.832;2022-10-16T10:25:13;101219.19;;;19.65;76.75
8101;BME280;4093;53.470;9.832;2022-10-16T10:27:50;101218.88;;;20.25;74.37
8101;BME280;4093;53.470;9.832;2022-10-16T10:30:22;101214.69;;;20.21;73.83
8101;BME280;4093;53.470;9.832;2022-10-16T10:33:04;101213.69;;;20.23;72.85
8101;BME280;4093;53.470;9.832;2022-10-16T10:35:42;101180.38;;;20.24;72.54
8101;BME280;4093;53.470;9.832;2022-10-16T10:38:20;101219.31;;;20.50;71.86
8101;BME280;4093;53.470;9.832;2022-10-16T10:41:01;101191.31;;;19.80;72.61
8101;BME280;4093;53.470;9.832;2022-10-16T10:43:45;101223.75;;;20.15;71.94
8101;BME280;4093;53.470;9.832;2022-10-16T10:46:20;101217.75;;;20.46;70.88
8101;BME280;4093;53.470;9.832;2022-10-16T10:49:05;101220.88;;;20.37;70.99
8101;BME280;4093;53.470;9.832;2022-10-16T10:51:45;101217.28;;;20.90;68.92
8101;BME280;4093;53.470;9.832;2022-10-16T10:54:22;101233.38;;;20.15;71.75
8101;BME280;4093;53.470;9.832;2022-10-16T10:56:57;101223.16;;;20.62;nan
8101;BME280;4093;53.470;9.832;2022-10-16T10:59:47;101220.25;;;20.84;68.78
8101;BME280;4093;53.470;9.832;2022-10-16T11:02:22;101229.53;;;20.22;71.44
8101;BME280;4093;53.470;9.832;2022-10-16T11:07:58;101231.25;;;20.58;68.73
8101;BME280;4093;53.470;9.832;2022-10-16T11:10:30;101238.53;;;19.99;70.44
8101;BME280;4093;53.470;9.832;2022-10-16T11:13:08;101240.91;;;20.57;69.19
8101;BME280;4093;53.470;9.832;2022-10-16T11:15:40;101237.28;;;20.60;67.87
8101;BME280;4093;53.470;9.832;2022-10-16T11:18:15;101229.84;;;20.16;69.55
8101;BME280;4093;53.470;9.832;2022-10-16T11:20:50;101243.97;;;20.30;69.38
8101;BME280;4093;53.470;9.832;2022-10-16T11:23:25;101248.69;;;20.24;69.01
8101;BME280;4093;53.470;9.832;2022-10-16T11:25:56;101213.44;;;20.45;68.32
8101;BME280;4093;53.470;9.832;2022-10-16T11:28:29;101251.22;;;20.43;69.03
8101;BME280;4093;53.470;9.832;2022-10-16T11:31:02;101276.50;;;20.97;67.60
8101;BME280;4093;53.470;9.832;2022-10-16T11:33:36;101267.09;;;20.76;67.66
8101;BME280;4093;53.470;9.832;2022-10-16T11:36:11;101276.63;;;20.61;67.11
8101;BME280;4093;53.470;9.832;2022-10-16T11:38:49;101275.72;;;20.95;67.29
8101;BME280;4093;53.470;9.832;2022-10-16T11:41:26;101276.78;;;21.09;66.64
8101;BME280;4093;53.470;9.832;2022-10-16T11:44:13;101276.50;;;20.80;66.27
8101;BME280;4093;53.470;9.832;2022-10-16T11:46:48;101276.19;;;21.03;63.91
8101;BME280;4093;53.470;9.832;2022-10-16T11:49:40;101288.13;;;20.59;64.77
8101;BME280;4093;53.470;9.832;2022-10-16T11:52:13;101290.41;;;20.30;65.42
8101;BME280;4093;53.470;9.832;2022-10-16T11:54:50;101298.13;;;20.33;64.86
8101;BME280;4093;53.470;9.832;2022-10-16T11:57:23;101291.72;;;20.21;65.40
8101;BME280;4093;53.470;9.832;2022-10-16T11:59:55;101298.38;;;20.28;66.68
8101;BME280;4093;53.470;9.832;2022-10-16T12:02:46;101303.31;;;20.34;64.81
8101;BME280;4093;53.470;9.832;2022-10-16T12:05:25;101200.88;;;19.45;65.08
8101;BME280;4093;53.470;9.832;2022-10-16T12:08:04;101310.56;;;20.29;64.60
8101;BME280;4093;53.470;9.832;2022-10-16T12:10:34;101317.16;;;19.83;66.30
8101;BME280;4093;53.470;9.832;2022-10-16T12:13:04;101326.13;;;20.34;64.70
8101;BME280;4093;53.470;9.832;2022-10-16T12:15:33;101266.66;;;20.14;64.16
8101;BME280;4093;53.470;9.832;2022-10-16T12:18:22;101331.19;;;20.56;64.09
8101;BME280;4093;53.470;9.832;2022-10-16T12:20:55;101323.75;;;20.10;65.02
8101;BME280;4093;53.470;9.832;2022-10-16T12:23:25;101330.53;;;20.51;64.11
8101;BME280;4093;53.470;9.832;2022-10-16T12:25:56;101336.38;;;20.39;64.36
8101;BME280;4093;53.470;9.832;2022-10-16T12:28:27;101322.72;;;20.32;64.06
8101;BME280;4093;53.470;9.832;2022-10-16T12:30:58;101338.38;;;20.70;63.59
8101;BME280;4093;53.470;9.832;2022-10-16T12:33:30;101332.06;;;20.01;65.36
8101;BME280;4093;53.470;9.832;2022-10-16T12:36:01;101343.41;;;20.92;63.64
8101;BME280;4093;53.470;9.832;2022-10-16T12:38:36;101339.72;;;21.29;62.44
8101;BME280;4093;53.470;9.832;2022-10-16T12:41:08;101338.78;;;20.62;62.91
8101;BME280;4093;53.470;9.832;2022-10-16T12:43:39;101346.72;;;20.61;62.17
8101;BME280;4093;53.470;9.832;2022-10-16T12:46:33;101346.84;;;20.40;62.78
8101;BME280;4093;53.470;9.832;2022-10-16T12:49:17;101356.22;;;20.27;64.32
8101;BME280;4093;53.470;9.832;2022-10-16T12:51:47;101358.09;;;20.42;63.70
8101;BME280;4093;53.470;9.832;2022-10-16T12:54:17;101367.59;;;20.98;63.45
8101;BME280;4093;53.470;9.832;2022-10-16T12:56:56;101362.94;;;21.38;62.78
8101;BME280;4093;53.470;9.832;2022-10-16T12:59:33;101361.03;;;21.07;62.86
8101;BME280;4093;53.470;9.832;2022-10-16T13:02:22;101361.25;;;21.20;62.14
8101;BME280;4093;53.470;9.832;2022-10-16T13:05:16;101358.94;;;20.96;61.96
8101;BME280;4093;53.470;9.832;2022-10-16T13:07:55;101356.63;;;21.08;61.24
8101;BME280;4093;53.470;9.832;2022-10-16T13:10:30;101364.84;;;21.35;60.11
8101;BME280;4093;53.470;9.832;2022-10-16T13:13:13;101367.66;;;21.81;59.78
8101;BME280;4093;53.470;9.832;2022-10-16T13:15:55;101361.34;;;21.52;60.93
8101;BME280;4093;53.470;9.832;2022-10-16T13:18:30;101379.34;;;21.09;61.21
8101;BME280;4093;53.470;9.832;2022-10-16T13:21:12;101383.78;;;20.91;60.79
8101;BME280;4093;53.470;9.832;2022-10-16T13:23:54;101394.44;;;21.40;60.49
8101;BME280;4093;53.470;9.832;2022-10-16T13:26:32;101390.97;;;21.05;59.61
8101;BME280;4093;53.470;9.832;2022-10-16T13:29:03;101376.31;;;20.64;60.52
8101;BME280;4093;53.470;9.832;2022-10-16T13:31:32;101398.47;;;21.12;59.79
8101;BME280;4093;53.470;9.832;2022-10-16T13:34:01;101398.13;;;20.66;61.74
8101;BME280;4093;53.470;9.832;2022-10-16T13:36:33;101367.50;;;21.17;60.63
8101;BME280;4093;53.470;9.832;2022-10-16T13:39:11;101409.34;;;21.57;59.67